createdAt,value
2023-02-23T00:01:42.252Z,44.74
2023-02-23T00:04:09.068Z,44.79
2023-02-23T00:06:37.047Z,44.87
2023-02-23T00:09:12.253Z,44.75
2023-02-23T00:11:38.783Z,44.67
2023-02-23T00:14:05.773Z,44.73
2023-02-23T00:16:32.414Z,44.84
2023-02-23T00:19:02.859Z,44.72
2023-02-23T00:21:32.747Z,44.92
2023-02-23T00:24:02.580Z,44.74
2023-02-23T00:26:34.564Z,44.57
2023-02-23T00:29:04.269Z,44.86
2023-02-23T00:31:30.894Z,44.98
2023-02-23T00:34:01.451Z,44.86
2023-02-23T00:36:34.047Z,44.63
2023-02-23T00:39:06.865Z,45.26
2023-02-23T00:41:33.448Z,45.27
2023-02-23T00:44:00.623Z,44.92
2023-02-23T00:46:30.565Z,45.25
2023-02-23T00:48:58.493Z,45.26
2023-02-23T00:51:27.709Z,45.14
2023-02-23T00:53:55.132Z,45.00
2023-02-23T00:56:22.438Z,45.70
2023-02-23T00:58:49.047Z,45.25
2023-02-23T01:01:16.783Z,45.34
2023-02-23T01:03:44.253Z,44.99
2023-02-23T01:06:14.832Z,45.33
2023-02-23T01:08:43.802Z,45.36
2023-02-23T01:11:17.339Z,45.16
2023-02-23T01:13:47.044Z,45.01
2023-02-23T01:16:16.430Z,45.35
2023-02-23T01:18:44.691Z,45.09
2023-02-23T01:21:36.520Z,45.08
2023-02-23T01:24:04.047Z,45.12
2023-02-23T01:26:39.510Z,45.08
2023-02-23T01:29:15.606Z,45.29
2023-02-23T01:31:45.440Z,45.08
2023-02-23T01:34:15.459Z,44.95
2023-02-23T01:36:43.602Z,44.76
2023-02-23T01:39:19.943Z,44.37
2023-02-23T01:41:46.856Z,44.63
2023-02-23T01:44:14.608Z,44.63
2023-02-23T01:46:46.033Z,44.91
2023-02-23T01:49:19.983Z,45.04
2023-02-23T01:51:48.511Z,44.81
2023-02-23T01:54:28.937Z,44.61
2023-02-23T01:56:58.445Z,44.95
2023-02-23T01:59:32.672Z,44.91
2023-02-23T02:01:59.543Z,44.94
2023-02-23T02:04:26.952Z,45.53
2023-02-23T02:06:56.502Z,45.31
2023-02-23T02:09:27.822Z,45.43
2023-02-23T02:11:54.432Z,45.31
2023-02-23T02:14:31.576Z,45.49
2023-02-23T02:17:03.538Z,45.51
2023-02-23T02:20:05.308Z,45.57
2023-02-23T02:23:31.245Z,45.34
2023-02-23T02:25:57.692Z,46.35
2023-02-23T02:28:54.792Z,45.83
2023-02-23T02:31:43.111Z,45.70
2023-02-23T02:34:33.673Z,45.64
2023-02-23T02:37:27.758Z,45.54
2023-02-23T02:40:16.312Z,45.97
2023-02-23T02:43:10.116Z,45.86
2023-02-23T02:45:45.644Z,45.76
2023-02-23T02:48:27.233Z,45.66
2023-02-23T02:50:57.986Z,45.99
2023-02-23T02:53:40.907Z,45.85
2023-02-23T02:56:09.536Z,45.68
2023-02-23T02:58:39.007Z,45.94
2023-02-23T03:01:31.717Z,46.57
2023-02-23T03:04:20.990Z,46.79
2023-02-23T03:07:21.587Z,46.71
2023-02-23T03:10:31.560Z,47.22
2023-02-23T03:13:37.176Z,47.67
2023-02-23T03:16:42.586Z,47.00
2023-02-23T03:19:49.261Z,46.55
2023-02-23T03:22:51.191Z,46.25
2023-02-23T03:26:00.149Z,46.00
2023-02-23T03:28:51.296Z,46.33
2023-02-23T03:32:02.479Z,46.05
2023-02-23T03:34:55.968Z,46.21
2023-02-23T03:37:56.138Z,46.16
2023-02-23T03:40:46.808Z,46.15
2023-02-23T03:43:39.261Z,46.19
2023-02-23T03:46:29.201Z,46.36
2023-02-23T03:49:17.920Z,46.48
2023-02-23T03:52:12.278Z,46.50
2023-02-23T03:55:08.730Z,46.62
2023-02-23T03:57:56.715Z,46.66
2023-02-23T04:00:52.724Z,46.61
2023-02-23T04:03:39.776Z,46.72
2023-02-23T04:06:30.538Z,47.14
2023-02-23T04:09:20.136Z,47.04
2023-02-23T04:12:20.727Z,46.99
2023-02-23T04:15:04.414Z,47.00
2023-02-23T04:17:31.528Z,47.04
2023-02-23T04:19:58.110Z,47.24
2023-02-23T04:22:24.756Z,47.47
2023-02-23T04:24:51.339Z,47.71
2023-02-23T04:27:17.915Z,47.38
2023-02-23T04:29:45.042Z,47.50
2023-02-23T04:32:16.163Z,47.43
2023-02-23T04:34:43.587Z,47.75
2023-02-23T04:37:10.613Z,47.94
2023-02-23T04:39:37.133Z,47.83
2023-02-23T04:42:03.886Z,47.72
2023-02-23T04:44:30.468Z,48.21
2023-02-23T04:46:57.852Z,47.98
2023-02-23T04:49:24.513Z,47.63
2023-02-23T04:51:51.126Z,48.00
2023-02-23T04:54:18.232Z,47.58
2023-02-23T04:56:44.862Z,47.71
2023-02-23T04:59:11.405Z,47.70
2023-02-23T05:01:37.993Z,47.73
2023-02-23T05:04:04.713Z,47.89
2023-02-23T05:06:32.014Z,48.07
2023-02-23T05:08:58.622Z,48.04
2023-02-23T05:11:26.495Z,48.14
2023-02-23T05:13:54.210Z,47.75
2023-02-23T05:16:21.019Z,47.97
2023-02-23T05:18:47.750Z,47.76
2023-02-23T05:21:14.341Z,47.72
2023-02-23T05:23:40.872Z,47.76
2023-02-23T05:26:09.860Z,47.94
2023-02-23T05:28:38.449Z,47.77
2023-02-23T05:31:06.042Z,47.91
2023-02-23T05:33:34.288Z,47.74
2023-02-23T05:36:04.099Z,48.00
2023-02-23T05:38:30.620Z,47.86
2023-02-23T05:40:57.281Z,47.64
2023-02-23T05:43:23.799Z,47.53
2023-02-23T05:45:50.365Z,47.71
2023-02-23T05:48:16.909Z,47.53
2023-02-23T05:50:43.431Z,47.70
2023-02-23T05:53:10.396Z,47.55
2023-02-23T05:55:37.491Z,47.58
2023-02-23T05:58:04.092Z,47.46
2023-02-23T06:00:30.627Z,47.49
2023-02-23T06:02:57.220Z,47.28
2023-02-23T06:05:23.761Z,47.34
2023-02-23T06:07:50.307Z,47.54
2023-02-23T06:10:17.232Z,47.73
2023-02-23T06:12:43.743Z,47.75
2023-02-23T06:15:10.749Z,48.07
2023-02-23T06:17:37.341Z,48.13
2023-02-23T06:20:05.153Z,48.21
2023-02-23T06:22:31.752Z,47.68
2023-02-23T06:24:58.532Z,47.42
2023-02-23T06:27:25.806Z,47.58
2023-02-23T06:29:52.351Z,47.10
2023-02-23T06:32:18.901Z,47.41
2023-02-23T06:34:48.060Z,47.09
2023-02-23T06:37:14.686Z,47.20
2023-02-23T06:39:41.514Z,47.15
2023-02-23T06:42:08.044Z,47.28
2023-02-23T06:44:35.366Z,47.43
2023-02-23T06:47:05.663Z,47.26
2023-02-23T06:49:32.613Z,47.32
2023-02-23T06:51:59.224Z,47.19
2023-02-23T06:54:26.328Z,47.08
2023-02-23T06:56:54.732Z,47.40
2023-02-23T06:59:21.586Z,47.26
2023-02-23T07:01:48.124Z,47.65
2023-02-23T07:04:16.783Z,47.34
2023-02-23T07:06:43.547Z,47.40
2023-02-23T07:09:10.134Z,47.27
2023-02-23T07:11:36.963Z,46.78
2023-02-23T07:14:03.545Z,46.93
2023-02-23T07:16:30.313Z,46.83
2023-02-23T07:18:57.045Z,46.80
2023-02-23T07:21:23.617Z,46.93
2023-02-23T07:23:50.246Z,46.46
2023-02-23T07:26:18.300Z,46.77
2023-02-23T07:28:45.162Z,46.58
2023-02-23T07:31:11.778Z,46.12
2023-02-23T07:33:38.326Z,46.38
2023-02-23T07:36:05.207Z,45.50
2023-02-23T07:38:31.954Z,45.52
2023-02-23T07:40:58.493Z,45.48
2023-02-23T07:43:25.051Z,45.35
2023-02-23T07:45:51.896Z,45.27
2023-02-23T07:48:19.395Z,44.96
2023-02-23T07:50:46.466Z,44.75
2023-02-23T07:53:14.208Z,44.14
2023-02-23T07:55:40.776Z,43.81
2023-02-23T07:58:07.781Z,44.46
2023-02-23T08:00:36.503Z,44.44
2023-02-23T08:03:03.072Z,44.02
2023-02-23T08:05:29.689Z,44.30
2023-02-23T08:07:58.054Z,44.32
2023-02-23T08:10:24.959Z,43.95
2023-02-23T08:12:51.584Z,43.88
2023-02-23T08:15:18.335Z,43.75
2023-02-23T08:17:45.373Z,43.75
2023-02-23T08:20:12.093Z,43.48
2023-02-23T08:22:48.771Z,43.89
2023-02-23T08:25:15.725Z,43.26
2023-02-23T08:27:42.358Z,43.18
2023-02-23T08:30:09.828Z,43.21
2023-02-23T08:32:36.453Z,42.80
2023-02-23T08:35:03.096Z,42.76
2023-02-23T08:37:30.071Z,43.33
2023-02-23T08:39:57.251Z,43.22
2023-02-23T08:42:23.817Z,43.85
2023-02-23T08:44:50.342Z,43.28
2023-02-23T08:47:23.459Z,43.35
2023-02-23T08:49:50.706Z,43.15
2023-02-23T08:52:17.848Z,43.11
2023-02-23T08:54:44.381Z,43.63
2023-02-23T08:57:12.592Z,43.38
2023-02-23T08:59:41.165Z,43.29
2023-02-23T09:02:12.456Z,43.64
2023-02-23T09:04:41.783Z,43.51
2023-02-23T09:07:13.308Z,43.34
2023-02-23T09:09:40.034Z,43.14
2023-02-23T09:12:06.689Z,43.72
2023-02-23T09:14:33.289Z,43.48
2023-02-23T09:16:59.805Z,42.99
2023-02-23T09:19:27.562Z,42.45
2023-02-23T09:21:54.078Z,42.79
2023-02-23T09:24:21.670Z,44.09
2023-02-23T09:26:49.262Z,43.10
2023-02-23T09:29:15.964Z,42.77
2023-02-23T09:31:43.595Z,42.47
2023-02-23T09:34:12.614Z,42.31
2023-02-23T09:36:39.347Z,42.17
2023-02-23T09:39:05.892Z,42.12
2023-02-23T09:41:51.448Z,42.91
2023-02-23T09:44:35.679Z,42.32
2023-02-23T09:47:11.496Z,41.96
2023-02-23T09:49:44.328Z,41.60
2023-02-23T09:52:17.962Z,41.08
2023-02-23T09:54:44.839Z,40.93
2023-02-23T09:57:17.906Z,41.03
2023-02-23T09:59:45.200Z,40.73
2023-02-23T10:02:23.048Z,40.85
2023-02-23T10:05:03.831Z,41.05
2023-02-23T10:07:45.380Z,41.06
2023-02-23T10:10:28.302Z,41.50
2023-02-23T10:13:19.753Z,41.88
2023-02-23T10:16:08.006Z,40.71
2023-02-23T10:18:47.464Z,40.68
2023-02-23T10:21:30.106Z,40.68
2023-02-23T10:24:01.960Z,41.12
2023-02-23T10:26:44.115Z,40.81
2023-02-23T10:29:22.006Z,41.50
2023-02-23T10:31:54.147Z,41.02
2023-02-23T10:34:23.175Z,40.21
2023-02-23T10:37:01.675Z,40.76
2023-02-23T10:39:32.681Z,40.23
2023-02-23T10:42:03.332Z,41.05
2023-02-23T10:44:30.128Z,40.83
2023-02-23T10:47:06.145Z,40.29
2023-02-23T10:49:42.879Z,39.94
2023-02-23T10:52:13.574Z,40.65
2023-02-23T10:54:49.423Z,41.51
2023-02-23T10:57:20.693Z,40.82
2023-02-23T11:00:06.108Z,40.27
2023-02-23T11:02:34.056Z,40.34
2023-02-23T11:05:01.416Z,40.57
2023-02-23T11:07:32.713Z,39.06
2023-02-23T11:10:20.246Z,38.78
2023-02-23T11:12:49.609Z,38.43
2023-02-23T11:15:46.438Z,38.60
2023-02-23T11:18:26.471Z,38.53
2023-02-23T11:20:53.403Z,39.34
2023-02-23T11:23:29.538Z,40.44
2023-02-23T11:26:02.123Z,40.79
2023-02-23T11:28:37.616Z,39.67
2023-02-23T11:31:14.228Z,39.54
2023-02-23T11:33:41.147Z,38.44
2023-02-23T11:36:37.515Z,38.01
2023-02-23T11:39:16.532Z,38.76
2023-02-23T11:41:43.299Z,38.41
2023-02-23T11:44:22.485Z,39.28
2023-02-23T11:46:50.667Z,38.17
2023-02-23T11:49:33.214Z,37.55
2023-02-23T11:51:59.943Z,37.14
2023-02-23T11:54:33.285Z,37.06
2023-02-23T11:57:02.492Z,36.62
2023-02-23T11:59:39.836Z,35.99
2023-02-23T12:02:25.049Z,35.88
2023-02-23T12:05:20.596Z,34.99
2023-02-23T12:07:55.249Z,36.13
2023-02-23T12:10:35.190Z,35.26
2023-02-23T12:13:27.452Z,35.81
2023-02-23T12:16:07.016Z,35.89
2023-02-23T12:18:49.873Z,35.73
2023-02-23T12:21:25.184Z,36.94
2023-02-23T12:24:01.241Z,37.08
2023-02-23T12:26:29.530Z,37.68
2023-02-23T12:29:21.783Z,37.52
2023-02-23T12:32:02.811Z,37.81
2023-02-23T12:34:47.457Z,38.25
2023-02-23T12:37:41.095Z,37.94
2023-02-23T12:40:22.222Z,37.95
2023-02-23T12:43:11.807Z,38.06
2023-02-23T12:45:59.416Z,38.60
2023-02-23T12:48:41.932Z,39.35
2023-02-23T12:51:44.702Z,39.60
2023-02-23T12:54:12.802Z,39.35
2023-02-23T12:57:16.020Z,40.16
2023-02-23T13:00:24.639Z,40.05
2023-02-23T13:03:35.260Z,39.63
2023-02-23T13:06:10.218Z,39.50
2023-02-23T13:08:48.218Z,40.45
2023-02-23T13:11:35.991Z,39.97
2023-02-23T13:14:18.691Z,40.63
2023-02-23T13:16:55.412Z,40.15
2023-02-23T13:19:25.528Z,40.47
2023-02-23T13:22:06.506Z,40.52
2023-02-23T13:24:40.110Z,40.04
2023-02-23T13:27:22.755Z,40.16
2023-02-23T13:29:55.022Z,39.27
2023-02-23T13:32:24.945Z,39.92
2023-02-23T13:34:56.670Z,39.40
2023-02-23T13:37:59.562Z,38.31
2023-02-23T13:40:36.236Z,37.96
2023-02-23T13:43:30.091Z,37.21
2023-02-23T13:46:07.535Z,36.54
2023-02-23T13:49:02.066Z,36.43
2023-02-23T13:51:41.343Z,37.04
2023-02-23T13:54:13.644Z,36.52
2023-02-23T13:56:47.459Z,35.92
2023-02-23T13:59:19.987Z,36.29
2023-02-23T14:01:50.396Z,36.27
2023-02-23T14:04:23.626Z,35.49
2023-02-23T14:07:00.240Z,36.56
2023-02-23T14:09:41.283Z,35.77
2023-02-23T14:12:07.766Z,35.47
2023-02-23T14:14:34.240Z,35.34
2023-02-23T14:17:10.089Z,35.20
2023-02-23T14:19:40.807Z,34.99
2023-02-23T14:22:18.395Z,34.26
2023-02-23T14:24:44.929Z,33.43
2023-02-23T14:27:41.605Z,32.94
2023-02-23T14:30:11.637Z,33.19
2023-02-23T14:32:40.884Z,33.61
2023-02-23T14:35:32.892Z,33.71
2023-02-23T14:38:15.641Z,33.90
2023-02-23T14:40:46.940Z,34.83
2023-02-23T14:43:41.961Z,35.97
2023-02-23T14:46:13.389Z,36.04
2023-02-23T14:48:44.195Z,36.70
2023-02-23T14:51:21.348Z,36.82
2023-02-23T14:53:47.915Z,37.02
2023-02-23T14:56:19.914Z,37.11
2023-02-23T14:58:54.347Z,37.63
2023-02-23T15:01:39.179Z,37.69
2023-02-23T15:04:10.223Z,38.11
2023-02-23T15:06:38.517Z,39.09
2023-02-23T15:09:05.492Z,39.65
2023-02-23T15:11:32.637Z,39.92
2023-02-23T15:14:00.286Z,40.22
2023-02-23T15:16:37.034Z,41.00
2023-02-23T15:19:05.099Z,41.80
2023-02-23T15:21:31.709Z,41.99
2023-02-23T15:24:04.941Z,42.68
2023-02-23T15:26:37.544Z,43.32
2023-02-23T15:29:16.116Z,44.13
2023-02-23T15:31:55.197Z,44.57
2023-02-23T15:34:26.635Z,44.94
2023-02-23T15:36:59.771Z,45.35
2023-02-23T15:39:40.945Z,45.67
2023-02-23T15:42:14.437Z,45.74
2023-02-23T15:44:44.984Z,45.76
2023-02-23T15:47:36.882Z,45.26
2023-02-23T15:50:35.931Z,45.51
2023-02-23T15:53:13.347Z,45.44
2023-02-23T15:55:42.907Z,45.06
2023-02-23T15:58:31.242Z,45.07
2023-02-23T16:00:59.866Z,44.19
2023-02-23T16:03:31.704Z,43.69
2023-02-23T16:06:08.372Z,42.86
2023-02-23T16:08:36.897Z,42.44
2023-02-23T16:11:19.018Z,41.83
2023-02-23T16:13:46.968Z,41.46
2023-02-23T16:16:20.527Z,41.33
2023-02-23T16:18:53.646Z,41.41
2023-02-23T16:21:23.871Z,41.22
2023-02-23T16:23:53.628Z,41.17
2023-02-23T16:26:26.749Z,41.38
2023-02-23T16:28:57.497Z,41.98
2023-02-23T16:31:42.795Z,41.72
2023-02-23T16:34:27.388Z,42.03
2023-02-23T16:36:58.292Z,42.37
2023-02-23T16:39:29.376Z,42.25
2023-02-23T16:41:58.593Z,43.24
2023-02-23T16:44:34.295Z,43.50
2023-02-23T16:47:08.473Z,43.48
2023-02-23T16:49:35.142Z,44.13
2023-02-23T16:52:01.763Z,44.46
2023-02-23T16:54:28.396Z,44.35
2023-02-23T16:56:55.350Z,44.84
2023-02-23T16:59:23.343Z,44.97
2023-02-23T17:01:50.765Z,44.74
2023-02-23T17:04:19.389Z,44.59
2023-02-23T17:06:48.256Z,44.45
2023-02-23T17:09:14.778Z,45.12
2023-02-23T17:11:42.791Z,45.51
2023-02-23T17:14:19.271Z,45.38
2023-02-23T17:16:45.855Z,45.55
2023-02-23T17:19:15.863Z,46.12
2023-02-23T17:21:42.397Z,46.10
2023-02-23T17:24:08.924Z,46.45
2023-02-23T17:26:35.677Z,46.08
2023-02-23T17:29:02.336Z,46.47
2023-02-23T17:31:29.532Z,46.22
2023-02-23T17:33:56.260Z,46.45
2023-02-23T17:36:23.801Z,46.67
2023-02-23T17:38:50.458Z,46.77
2023-02-23T17:41:19.537Z,47.36
2023-02-23T17:43:46.357Z,47.31
2023-02-23T17:46:13.390Z,47.48
2023-02-23T17:48:40.799Z,47.71
2023-02-23T17:51:11.947Z,47.48
2023-02-23T17:53:39.890Z,47.97
2023-02-23T17:56:06.746Z,48.04
2023-02-23T17:58:33.420Z,48.29
2023-02-23T18:01:02.167Z,48.35
2023-02-23T18:03:32.087Z,48.39
2023-02-23T18:06:00.520Z,48.48
2023-02-23T18:08:27.145Z,48.93
2023-02-23T18:10:54.541Z,48.89
2023-02-23T18:13:21.622Z,48.87
2023-02-23T18:15:53.318Z,48.84
2023-02-23T18:18:21.643Z,48.82
2023-02-23T18:20:50.405Z,49.00
2023-02-23T18:23:17.354Z,49.05
2023-02-23T18:25:44.369Z,49.56
2023-02-23T18:28:11.968Z,49.81
2023-02-23T18:30:39.836Z,49.98
2023-02-23T18:33:07.409Z,50.10
2023-02-23T18:35:36.167Z,50.32
2023-02-23T18:38:10.271Z,50.40
2023-02-23T18:40:43.544Z,50.51
2023-02-23T18:43:11.002Z,50.50
2023-02-23T18:45:37.676Z,50.44
2023-02-23T18:48:06.540Z,50.46
2023-02-23T18:50:33.035Z,50.47
2023-02-23T18:53:04.958Z,51.03
2023-02-23T18:55:31.746Z,50.71
2023-02-23T18:57:58.288Z,50.61
2023-02-23T19:00:24.943Z,50.29
2023-02-23T19:02:51.519Z,50.30
2023-02-23T19:05:20.754Z,50.46
2023-02-23T19:07:48.191Z,50.98
2023-02-23T19:10:15.296Z,50.32
2023-02-23T19:12:41.999Z,50.96
2023-02-23T19:15:09.547Z,51.06
2023-02-23T19:17:36.322Z,50.77
2023-02-23T19:20:08.084Z,51.02
2023-02-23T19:22:34.988Z,50.98
2023-02-23T19:25:01.809Z,50.46
2023-02-23T19:27:28.386Z,50.31
2023-02-23T19:29:54.985Z,50.44
2023-02-23T19:32:21.729Z,50.36
2023-02-23T19:34:48.420Z,50.60
2023-02-23T19:37:15.032Z,50.87
2023-02-23T19:39:41.759Z,50.88
2023-02-23T19:42:09.121Z,50.79
2023-02-23T19:44:35.954Z,50.68
2023-02-23T19:47:02.493Z,50.94
2023-02-23T19:49:29.228Z,51.18
2023-02-23T19:51:57.650Z,50.87
2023-02-23T19:54:25.974Z,50.99
2023-02-23T19:56:53.026Z,50.94
2023-02-23T19:59:19.728Z,50.80
2023-02-23T20:01:46.362Z,51.24
2023-02-23T20:04:13.035Z,50.97
2023-02-23T20:06:44.824Z,50.92
2023-02-23T20:09:11.713Z,50.77
2023-02-23T20:11:38.760Z,50.34
2023-02-23T20:14:07.419Z,49.97
2023-02-23T20:16:35.132Z,50.00
2023-02-23T20:19:03.577Z,50.10
2023-02-23T20:21:31.347Z,50.14
2023-02-23T20:23:59.646Z,50.36
2023-02-23T20:26:29.620Z,50.22
2023-02-23T20:28:57.734Z,49.79
2023-02-23T20:31:30.239Z,49.93
2023-02-23T20:34:00.625Z,49.70
2023-02-23T20:36:27.254Z,49.80
2023-02-23T20:38:54.046Z,49.84
2023-02-23T20:41:20.987Z,49.65
2023-02-23T20:43:47.835Z,49.47
2023-02-23T20:46:16.459Z,49.59
2023-02-23T20:48:43.505Z,49.58
2023-02-23T20:51:14.205Z,49.80
2023-02-23T20:53:42.075Z,49.62
2023-02-23T20:56:10.010Z,49.46
2023-02-23T20:58:36.596Z,49.56
2023-02-23T21:01:06.189Z,49.78
2023-02-23T21:03:34.407Z,49.95
2023-02-23T21:06:01.059Z,49.85
2023-02-23T21:08:28.827Z,50.04
2023-02-23T21:10:55.540Z,49.75
2023-02-23T21:13:23.060Z,49.70
2023-02-23T21:15:58.529Z,49.84
2023-02-23T21:18:25.360Z,49.83
2023-02-23T21:20:51.960Z,49.85
2023-02-23T21:23:20.351Z,49.58
2023-02-23T21:25:47.110Z,49.50
2023-02-23T21:28:13.678Z,49.88
2023-02-23T21:30:40.585Z,49.84
2023-02-23T21:33:07.288Z,50.13
2023-02-23T21:35:35.177Z,50.44
2023-02-23T21:38:01.886Z,50.24
2023-02-23T21:40:28.412Z,49.99
2023-02-23T21:42:55.011Z,50.11
2023-02-23T21:45:21.623Z,50.31
2023-02-23T21:47:49.125Z,50.40
2023-02-23T21:50:18.510Z,50.43
2023-02-23T21:52:48.504Z,50.81
2023-02-23T21:55:21.540Z,50.58
2023-02-23T21:57:49.242Z,50.50
2023-02-23T22:00:16.383Z,50.43
2023-02-23T22:02:46.418Z,50.29
2023-02-23T22:05:15.277Z,50.55
2023-02-23T22:07:48.503Z,50.21
2023-02-23T22:10:16.358Z,50.38
2023-02-23T22:12:42.889Z,50.83
2023-02-23T22:15:12.589Z,51.19
2023-02-23T22:17:39.155Z,50.76
2023-02-23T22:20:07.355Z,51.21
2023-02-23T22:22:36.053Z,50.44
2023-02-23T22:25:07.644Z,50.95
2023-02-23T22:27:34.269Z,50.74
2023-02-23T22:30:01.518Z,51.01
2023-02-23T22:32:32.527Z,51.24
2023-02-23T22:35:00.232Z,50.44
2023-02-23T22:37:31.846Z,50.09
2023-02-23T22:40:01.278Z,50.19
2023-02-23T22:42:29.589Z,50.29
2023-02-23T22:44:57.025Z,49.50
2023-02-23T22:47:24.148Z,48.28
2023-02-23T22:49:50.737Z,48.24
2023-02-23T22:52:17.364Z,48.25
2023-02-23T22:54:46.364Z,49.13
2023-02-23T22:57:13.549Z,49.99
2023-02-23T22:59:40.089Z,50.71
2023-02-23T23:02:06.704Z,50.99
2023-02-23T23:04:34.450Z,50.77
2023-02-23T23:07:01.236Z,50.77
2023-02-23T23:09:28.136Z,50.64
2023-02-23T23:11:56.605Z,50.59
2023-02-23T23:14:23.303Z,50.55
2023-02-23T23:16:53.076Z,50.43
2023-02-23T23:19:24.075Z,50.37
2023-02-23T23:21:54.955Z,50.64
2023-02-23T23:24:23.432Z,50.51
2023-02-23T23:26:55.446Z,50.18
2023-02-23T23:29:23.543Z,50.24
2023-02-23T23:31:51.581Z,50.74
2023-02-23T23:34:21.537Z,50.40
2023-02-23T23:36:49.289Z,50.79
2023-02-23T23:39:17.817Z,51.05
2023-02-23T23:41:47.838Z,51.23
2023-02-23T23:44:16.663Z,51.26
2023-02-23T23:46:45.452Z,50.85
2023-02-23T23:49:15.905Z,50.45
2023-02-23T23:51:55.946Z,50.64
2023-02-23T23:54:27.895Z,50.75
2023-02-23T23:56:54.490Z,50.93
2023-02-23T23:59:24.014Z,50.69
